Time;durP1;ratioP1;P1;durP2;ratioP2;P2;SDS_P1;SDS_P2;PMS_P1;PMS_P2;Temp;Humidity;BMP_temperature;BMP_pressure;BME280_temperature;BME280_humidity;BME280_pressure;Samples;Min_cycle;Max_cycle;Signal;HPM_P1;HPM_P2
2023/07/20 04:22:34;;;;;;;9.15;3.58;;;;;;;15.19;98.98;100150.94;5130397;27;20359;-69
2023/07/20 04:25:00;;;;;;;4.25;2.85;;;;;;;15.17;100.00;100153.00;5129092;28;20051;-66
2023/07/20 04:27:26;;;;;;;7.28;3.47;;;;;;;15.20;100.00;100149.09;5128925;28;20101;-69
2023/07/20 04:29:51;;;;;;;8.73;4.03;;;;;;;15.25;100.00;100149.28;5128806;28;20035;-68
2023/07/20 04:32:17;;;;;;;6.82;4.05;;;;;;;15.27;100.00;100154.47;5130264;28;20042;-68
2023/07/20 04:34:42;;;;;;;34.58;17.30;;;;;;;15.32;100.00;100155.50;5128940;28;20129;-68
2023/07/20 04:37:08;;;;;;;10.65;5.40;;;;;;;15.29;100.00;100161.25;5128818;28;20480;-68
2023/07/20 04:39:33;;;;;;;19.50;9.57;;;;;;;15.32;100.00;100160.88;5128471;28;20035;-68
2023/07/20 04:42:04;;;;;;;14.15;6.90;;;;;;;15.33;100.00;100154.47;5128796;28;20637;-69
2023/07/20 04:44:30;;;;;;;11.27;5.35;;;;;;;15.34;100.00;100156.09;5128411;28;20095;-69
2023/07/20 04:46:55;;;;;;;8.32;4.78;;;;;;;15.40;100.00;100155.28;5128661;28;20471;-68
2023/07/20 04:49:21;;;;;;;8.20;4.43;;;;;;;15.42;100.00;100157.75;5129651;28;20036;-69
2023/07/20 04:51:47;;;;;;;8.13;4.15;;;;;;;15.46;99.69;100153.63;5128608;28;20441;-69
2023/07/20 04:54:13;;;;;;;9.50;3.95;;;;;;;15.44;100.00;100158.34;5128492;28;20043;-67
2023/07/20 04:56:38;;;;;;;6.90;3.42;;;;;;;15.43;100.00;100154.84;5128405;28;20449;-69
2023/07/20 04:59:07;;;;;;;5.68;3.80;;;;;;;15.44;100.00;100156.50;5123299;27;20031;-68
2023/07/20 05:01:32;;;;;;;5.32;2.97;;;;;;;15.46;99.96;100153.63;5128377;28;20537;-69
2023/07/20 05:03:57;;;;;;;5.78;3.15;;;;;;;15.52;99.51;100152.81;5128481;27;20504;-68
2023/07/20 05:06:23;;;;;;;7.63;3.42;;;;;;;15.54;100.00;100155.28;5128139;28;20042;-66
2023/07/20 05:08:48;;;;;;;6.88;3.28;;;;;;;15.61;100.00;100156.09;5127958;28;20548;-66
2023/07/20 05:11:14;;;;;;;6.63;3.70;;;;;;;15.62;100.00;100160.47;5128182;27;20161;-61
2023/07/20 05:13:40;;;;;;;8.18;2.85;;;;;;;15.69;99.35;100161.28;5128128;27;20160;-59
2023/07/20 05:16:05;;;;;;;6.20;3.50;;;;;;;15.76;99.01;100164.78;5129355;27;20073;-60
2023/07/20 05:18:32;;;;;;;6.30;3.42;;;;;;;15.83;96.19;100164.75;5127946;28;20114;-56
2023/07/20 05:20:58;;;;;;;7.45;3.90;;;;;;;15.93;94.83;100160.63;5129161;27;20150;-59
2023/07/20 05:23:25;;;;;;;8.57;4.30;;;;;;;16.07;92.36;100158.72;5128899;27;20106;-58
2023/07/20 05:25:58;;;;;;;9.45;3.28;;;;;;;16.16;92.15;100157.44;5127870;28;20039;-60
2023/07/20 05:28:24;;;;;;;10.20;4.03;;;;;;;16.30;90.66;100163.63;5128910;27;20506;-59
2023/07/20 05:30:51;;;;;;;7.22;3.50;;;;;;;16.45;88.75;100164.16;5129055;27;20035;-59
2023/07/20 05:33:17;;;;;;;6.93;3.75;;;;;;;16.59;88.31;100164.09;5119051;27;20107;-59
2023/07/20 05:35:43;;;;;;;6.40;2.85;;;;;;;16.67;88.00;100161.97;5115248;28;20496;-58
2023/07/20 05:38:08;;;;;;;8.48;3.83;;;;;;;16.82;86.16;100159.03;5115372;27;20126;-60
2023/07/20 05:40:37;;;;;;;5.68;3.30;;;;;;;16.95;85.38;100153.59;5115004;28;20123;-60
2023/07/20 05:43:03;;;;;;;7.75;3.50;;;;;;;17.14;84.12;100153.66;5115247;28;20039;-57
2023/07/20 05:45:28;;;;;;;8.68;4.00;;;;;;;17.30;83.52;100153.13;5115010;28;20135;-60
2023/07/20 05:47:53;;;;;;;6.53;3.38;;;;;;;17.39;83.09;100146.41;5115454;28;20039;-59
2023/07/20 05:50:19;;;;;;;10.25;5.25;;;;;;;17.46;83.22;100147.19;5113571;28;20100;-60
2023/07/20 05:52:44;;;;;;;10.93;5.13;;;;;;;17.58;82.62;100148.09;5114986;28;20056;-60
2023/07/20 05:55:10;;;;;;;7.93;3.45;;;;;;;17.67;81.58;100159.44;5115016;27;20080;-57
2023/07/20 05:57:35;;;;;;;5.40;2.92;;;;;;;17.82;80.63;100164.50;5115037;28;20040;-59
2023/07/20 06:00:01;;;;;;;6.40;3.10;;;;;;;17.95;81.10;100167.06;5114713;28;20051;-59
2023/07/20 06:02:26;;;;;;;7.72;3.47;;;;;;;18.16;79.42;100171.19;5114891;28;20180;-59
2023/07/20 06:04:51;;;;;;;9.88;3.00;;;;;;;18.20;77.15;100152.69;5114986;28;20028;-60
2023/07/20 06:07:17;;;;;;;5.82;3.38;;;;;;;18.35;75.72;100162.03;5114739;28;20438;-59
2023/07/20 06:09:42;;;;;;;8.32;3.45;;;;;;;18.40;75.50;100158.69;5114541;28;20035;-60
2023/07/20 06:12:08;;;;;;;7.03;3.33;;;;;;;18.50;76.32;100160.81;5114781;28;20441;-61
2023/07/20 06:14:33;;;;;;;6.43;3.50;;;;;;;18.53;76.37;100165.78;5114750;28;20115;-60
2023/07/20 06:16:59;;;;;;;7.10;3.08;;;;;;;18.59;76.34;100165.69;5113256;28;20043;-61
2023/07/20 06:19:24;;;;;;;4.55;2.95;;;;;;;18.68;75.05;100175.13;5114358;28;20246;-60
2023/07/20 06:21:50;;;;;;;7.80;3.65;;;;;;;18.82;73.39;100170.38;5114495;28;20031;-59
2023/07/20 06:24:16;;;;;;;7.70;3.33;;;;;;;18.85;73.40;100166.41;5114443;28;20046;-59
2023/07/20 06:26:42;;;;;;;8.63;3.40;;;;;;;18.91;74.66;100171.72;5114325;28;20124;-59
2023/07/20 06:29:08;;;;;;;7.47;3.95;;;;;;;18.98;74.33;100169.75;5114178;28;20128;-59
2023/07/20 06:31:35;;;;;;;8.40;3.80;;;;;;;18.98;74.62;100169.75;5114372;28;20040;-59
2023/07/20 06:34:00;;;;;;;10.18;4.45;;;;;;;19.03;73.53;100169.03;5114333;28;20101;-60
2023/07/20 06:36:26;;;;;;;11.30;3.67;;;;;;;19.04;73.64;100170.72;5113792;28;20480;-58
2023/07/20 06:38:52;;;;;;;8.93;3.47;;;;;;;19.06;73.80;100167.78;5094150;28;20081;-60
2023/07/20 06:41:18;;;;;;;6.07;2.83;;;;;;;19.09;76.87;100170.81;5113775;28;20035;-60
2023/07/20 06:43:44;;;;;;;6.00;3.30;;;;;;;19.16;73.76;100178.81;5113495;27;20031;-60
2023/07/20 06:46:09;;;;;;;5.88;2.92;;;;;;;19.23;73.15;100179.53;5112357;28;20476;-61
2023/07/20 06:48:35;;;;;;;5.63;2.70;;;;;;;19.34;72.68;100173.34;5113724;28;20035;-59
2023/07/20 06:51:00;;;;;;;6.55;3.10;;;;;;;19.45;72.72;100177.13;5113855;28;20035;-57
2023/07/20 06:53:25;;;;;;;8.45;3.05;;;;;;;19.59;70.59;100161.53;5114028;28;20033;-58
2023/07/20 06:55:51;;;;;;;7.03;3.30;;;;;;;19.65;70.77;100169.53;5113765;28;20557;-60
2023/07/20 06:58:17;;;;;;;6.57;2.92;;;;;;;19.81;70.42;100159.88;5113755;28;20046;-60
2023/07/20 07:00:43;;;;;;;5.72;2.95;;;;;;;19.87;71.59;100160.81;5113736;28;20031;-60
2023/07/20 07:03:08;;;;;;;4.90;3.08;;;;;;;19.92;69.52;100164.47;5113806;28;20038;-59
2023/07/20 07:05:37;;;;;;;8.13;3.25;;;;;;;20.08;71.03;100170.19;5113670;28;20078;-60
2023/07/20 07:08:04;;;;;;;7.45;3.13;;;;;;;20.22;71.45;100166.19;5113690;28;20039;-59
2023/07/20 07:10:30;;;;;;;7.13;2.75;;;;;;;20.33;65.52;100159.91;5113177;28;20043;-61
2023/07/20 07:12:55;;;;;;;6.88;2.97;;;;;;;20.46;65.92;100169.69;5113679;28;20117;-61
2023/07/20 07:15:20;;;;;;;6.35;2.92;;;;;;;20.51;66.49;100170.59;5113369;28;20472;-60
2023/07/20 07:17:46;;;;;;;3.90;2.30;;;;;;;20.62;66.18;100165.41;5113458;28;20035;-60
2023/07/20 07:20:11;;;;;;;4.85;3.00;;;;;;;20.68;65.23;100170.69;5112930;28;20032;-60
2023/07/20 07:22:37;;;;;;;6.60;3.58;;;;;;;20.73;65.30;100173.47;5113238;28;20450;-61
2023/07/20 07:25:03;;;;;;;5.60;2.83;;;;;;;20.69;67.67;100163.38;5113253;28;20126;-60
2023/07/20 07:27:28;;;;;;;7.00;2.40;;;;;;;20.76;65.57;100169.47;5113450;28;20039;-61
2023/07/20 07:29:54;;;;;;;7.13;2.35;;;;;;;20.66;65.69;100169.25;5113128;28;20040;-62
2023/07/20 07:32:20;;;;;;;4.72;2.33;;;;;;;20.65;64.20;100167.63;5113240;28;20040;-60
2023/07/20 07:34:47;;;;;;;4.90;2.38;;;;;;;20.60;65.56;100173.75;5113123;28;20074;-61
2023/07/20 07:37:13;;;;;;;4.32;2.30;;;;;;;20.63;66.64;100162.47;5113099;27;20035;-61
2023/07/20 07:39:39;;;;;;;5.45;2.60;;;;;;;20.60;65.18;100168.34;5112809;28;20040;-61
2023/07/20 07:42:05;;;;;;;8.20;2.58;;;;;;;20.68;65.07;100167.97;5113069;27;20093;-61
2023/07/20 07:44:31;;;;;;;5.40;2.33;;;;;;;20.90;63.72;100170.00;5112990;28;20031;-61
2023/07/20 07:46:56;;;;;;;6.50;3.42;;;;;;;21.04;64.45;100168.63;5112852;28;20411;-61
2023/07/20 07:49:21;;;;;;;4.68;2.28;;;;;;;21.21;61.19;100165.94;5112555;28;20040;-58
2023/07/20 07:51:47;;;;;;;6.40;2.47;;;;;;;21.14;61.06;100176.94;5112729;28;20032;-57
2023/07/20 07:54:12;;;;;;;13.75;2.80;;;;;;;21.05;61.27;100168.38;5112896;28;20046;-58
2023/07/20 07:56:38;;;;;;;6.13;2.13;;;;;;;20.98;62.06;100169.59;5112737;28;20527;-60
2023/07/20 07:59:04;;;;;;;8.32;2.70;;;;;;;21.00;61.29;100164.78;5112135;28;20039;-61
2023/07/20 08:01:29;;;;;;;4.70;2.10;;;;;;;21.03;62.49;100166.97;5111549;28;20074;-60
2023/07/20 08:03:55;;;;;;;5.35;2.15;;;;;;;21.02;61.30;100173.47;5111453;27;20067;-61
2023/07/20 08:06:21;;;;;;;4.85;2.40;;;;;;;21.19;60.99;100171.63;5111428;28;20031;-62
2023/07/20 08:08:47;;;;;;;5.28;2.38;;;;;;;21.14;62.24;100171.53;5111058;28;20526;-61
2023/07/20 08:11:12;;;;;;;3.40;2.05;;;;;;;21.07;64.49;100173.56;5111237;28;20044;-61
2023/07/20 08:13:38;;;;;;;7.68;3.17;;;;;;;21.12;62.83;100169.03;5111254;28;20036;-62
2023/07/20 08:16:04;;;;;;;6.55;2.30;;;;;;;21.15;62.78;100173.16;5109858;28;20063;-60
2023/07/20 08:18:29;;;;;;;8.45;2.50;;;;;;;21.10;61.30;100164.94;5110936;28;20043;-61
2023/07/20 08:20:54;;;;;;;4.18;2.53;;;;;;;21.44;61.14;100165.00;5110997;28;20607;-60
2023/07/20 08:23:20;;;;;;;4.68;2.20;;;;;;;21.50;61.50;100167.53;5111061;28;20047;-59
2023/07/20 08:25:46;;;;;;;5.18;2.38;;;;;;;21.72;60.73;100169.50;5111099;28;20032;-59
2023/07/20 08:28:13;;;;;;;5.10;2.28;;;;;;;21.81;58.02;100170.72;5111031;28;20395;-60
2023/07/20 08:30:43;;;;;;;5.30;2.17;;;;;;;21.87;58.38;100167.00;5108181;28;20046;-60
2023/07/20 08:33:09;;;;;;;8.32;2.30;;;;;;;21.88;58.60;100169.47;5110087;28;20032;-60
2023/07/20 08:35:35;;;;;;;3.70;2.10;;;;;;;22.02;57.62;100169.09;5110965;28;20110;-62
2023/07/20 08:38:01;;;;;;;3.67;2.28;;;;;;;22.19;55.91;100169.91;5110766;28;20164;-60
2023/07/20 08:40:26;;;;;;;4.38;2.17;;;;;;;22.28;55.49;100162.16;5109460;28;20035;-60
2023/07/20 08:42:54;;;;;;;6.95;2.40;;;;;;;22.40;55.23;100165.56;5111026;28;20040;-59
2023/07/20 08:45:22;;;;;;;6.18;2.33;;;;;;;22.56;55.88;100167.41;5108410;28;20039;-59
2023/07/20 08:47:49;;;;;;;3.38;2.05;;;;;;;22.74;55.71;100163.50;5112129;28;20035;-61
2023/07/20 08:50:16;;;;;;;5.70;2.20;;;;;;;22.70;54.37;100167.81;5111708;28;20027;-59
2023/07/20 08:52:41;;;;;;;7.30;2.75;;;;;;;22.81;54.72;100164.13;5112187;28;20388;-59
2023/07/20 08:55:07;;;;;;;5.93;2.30;;;;;;;22.84;54.06;100165.53;5110831;28;20055;-60
2023/07/20 08:57:34;;;;;;;2.45;1.70;;;;;;;22.93;51.96;100158.56;5112136;28;20035;-60
2023/07/20 09:00:11;;;;;;;2.90;1.92;;;;;;;23.03;53.92;100172.28;5111771;28;20070;-61
2023/07/20 09:02:40;;;;;;;10.50;2.53;;;;;;;23.37;53.37;100170.13;5111979;28;20119;-62
2023/07/20 09:05:07;;;;;;;5.80;2.42;;;;;;;23.13;51.92;100164.19;5111937;28;20035;-63
2023/07/20 09:07:35;;;;;;;3.67;2.25;;;;;;;23.11;51.58;100160.09;5112904;28;20036;-62
2023/07/20 09:10:05;;;;;;;5.07;1.98;;;;;;;23.05;52.77;100163.84;5115539;28;20477;-61
2023/07/20 09:12:32;;;;;;;3.80;2.10;;;;;;;22.99;53.82;100161.09;5115853;28;20078;-62
2023/07/20 09:14:58;;;;;;;4.57;1.88;;;;;;;22.97;52.88;100159.72;5115746;28;20509;-62
2023/07/20 09:17:25;;;;;;;2.75;1.60;;;;;;;22.83;52.81;100162.00;5115586;28;20134;-61
2023/07/20 09:19:51;;;;;;;3.92;2.20;;;;;;;22.98;52.64;100156.72;5114135;28;20040;-62
2023/07/20 09:22:17;;;;;;;3.25;2.00;;;;;;;23.23;52.41;100153.44;5115578;28;20035;-62
2023/07/20 09:24:44;;;;;;;3.38;1.83;;;;;;;23.39;50.35;100154.38;5115615;28;20067;-62
2023/07/20 09:27:12;;;;;;;3.53;2.10;;;;;;;23.76;51.69;100146.22;5115466;28;20036;-62
2023/07/20 09:29:51;;;;;;;4.50;2.05;;;;;;;24.07;50.51;100149.94;5113902;28;20043;-61
2023/07/20 09:32:20;;;;;;;2.85;1.65;;;;;;;24.39;45.87;100145.47;5115439;28;20119;-62
2023/07/20 09:34:46;;;;;;;3.35;1.63;;;;;;;24.43;46.10;100147.41;5115306;28;20043;-62
2023/07/20 09:37:12;;;;;;;2.78;1.50;;;;;;;24.66;45.33;100148.84;5114147;28;20036;-63
2023/07/20 09:39:45;;;;;;;3.53;1.77;;;;;;;24.93;45.26;100151.34;5115069;28;20035;-62
2023/07/20 09:42:12;;;;;;;2.58;1.73;;;;;;;25.03;43.48;100142.34;5115197;28;20027;-61
2023/07/20 09:44:38;;;;;;;1.73;1.30;;;;;;;24.92;41.11;100141.53;5115199;28;20047;-63
2023/07/20 09:47:04;;;;;;;5.35;2.00;;;;;;;24.91;43.73;100134.47;5115081;28;20039;-63
2023/07/20 09:49:29;;;;;;;3.88;1.65;;;;;;;24.80;43.76;100141.78;5114808;28;20545;-62
2023/07/20 09:51:57;;;;;;;4.85;1.88;;;;;;;24.60;45.03;100139.84;5115003;28;20502;-60
2023/07/20 09:54:24;;;;;;;4.72;1.70;;;;;;;25.08;47.25;100137.75;5115042;28;20068;-60
2023/07/20 09:56:51;;;;;;;3.97;1.50;;;;;;;25.36;44.55;100139.13;5114931;28;20035;-61
2023/07/20 09:59:16;;;;;;;4.25;1.70;;;;;;;25.37;44.39;100140.78;5114633;28;20042;-63
2023/07/20 10:01:43;;;;;;;2.60;1.67;;;;;;;24.98;43.92;100136.91;5114888;28;20400;-63
2023/07/20 10:04:11;;;;;;;4.70;1.60;;;;;;;25.05;43.64;100134.78;5114911;28;20035;-62
2023/07/20 10:06:41;;;;;;;2.88;1.55;;;;;;;25.29;42.21;100126.84;5114887;28;20040;-62
2023/07/20 10:09:10;;;;;;;2.38;1.67;;;;;;;25.83;40.18;100126.28;5114627;28;20128;-62
2023/07/20 10:11:38;;;;;;;2.03;1.30;;;;;;;26.16;39.82;100120.16;5114765;28;20040;-63
2023/07/20 10:14:11;;;;;;;2.58;1.50;;;;;;;26.14;37.75;100121.50;5115004;28;20396;-63
2023/07/20 10:16:47;;;;;;;3.92;1.75;;;;;;;26.42;39.51;100109.97;5114575;28;20476;-63
2023/07/20 10:19:25;;;;;;;4.32;1.70;;;;;;;26.75;39.14;100115.78;5114478;27;20039;-60
2023/07/20 10:22:06;;;;;;;2.50;1.38;;;;;;;27.12;37.73;100117.97;5114575;28;20085;-62
2023/07/20 10:24:32;;;;;;;5.18;1.52;;;;;;;26.57;36.89;100113.69;5114698;28;20032;-62
2023/07/20 10:26:57;;;;;;;4.28;1.48;;;;;;;26.84;37.26;100111.31;5114674;28;20585;-62
2023/07/20 10:29:24;;;;;;;2.50;1.73;;;;;;;27.24;38.05;100112.94;5114184;28;20028;-59
2023/07/20 10:31:50;;;;;;;1.80;1.20;;;;;;;27.54;36.15;100106.38;5114298;28;20042;-62
2023/07/20 10:34:17;;;;;;;2.00;1.20;;;;;;;27.95;36.26;100103.22;5114380;28;20039;-63
2023/07/20 10:36:51;;;;;;;2.03;1.43;;;;;;;28.43;33.90;100097.72;5114338;28;20042;-63
2023/07/20 10:39:30;;;;;;;3.45;1.73;;;;;;;28.27;35.26;100093.53;5114124;28;20280;-63
2023/07/20 10:42:10;;;;;;;2.83;1.50;;;;;;;28.69;35.94;100087.22;5114307;28;20134;-62
2023/07/20 10:44:40;;;;;;;3.03;1.60;;;;;;;28.37;33.57;100075.06;5114353;28;20070;-63
2023/07/20 10:47:10;;;;;;;2.05;1.30;;;;;;;28.84;33.92;100083.41;5113987;28;20035;-63
2023/07/20 10:50:02;;;;;;;2.83;1.50;;;;;;;29.21;32.22;100088.00;5113858;28;20040;-61
2023/07/20 10:52:37;;;;;;;2.50;1.20;;;;;;;29.60;33.67;100084.06;5112725;28;20040;-61
2023/07/20 10:55:14;;;;;;;1.98;1.30;;;;;;;29.33;34.53;100073.81;5113946;27;20063;-60
2023/07/20 10:57:40;;;;;;;3.95;1.27;;;;;;;29.22;32.91;100081.44;5113918;28;20074;-62
2023/07/20 11:00:15;;;;;;;1.92;1.40;;;;;;;29.24;31.73;100081.94;5112332;28;20085;-62
2023/07/20 11:02:48;;;;;;;1.67;1.38;;;;;;;29.02;33.40;100077.13;5110515;28;20074;-63
2023/07/20 11:05:33;;;;;;;2.63;1.58;;;;;;;28.53;35.66;100072.91;5109453;28;20040;-63
2023/07/20 11:07:58;;;;;;;3.65;1.30;;;;;;;28.70;37.29;100072.41;5110006;28;20038;-62
2023/07/20 11:10:24;;;;;;;3.70;1.42;;;;;;;29.24;32.71;100073.72;5112105;28;20031;-63
2023/07/20 11:13:26;;;;;;;3.85;1.42;;;;;;;29.50;30.79;100063.09;5113595;28;20031;-63
2023/07/20 11:15:57;;;;;;;1.83;1.17;;;;;;;29.18;29.52;100059.28;5113447;28;20073;-61
2023/07/20 11:18:26;;;;;;;1.67;1.20;;;;;;;29.11;32.30;100052.56;5112059;28;20043;-62
2023/07/20 11:20:53;;;;;;;2.53;1.23;;;;;;;29.89;31.67;100054.38;5113219;28;20020;-62
2023/07/20 11:23:20;;;;;;;3.60;1.30;;;;;;;29.92;31.71;100056.50;5113320;28;20092;-61
2023/07/20 11:25:45;;;;;;;2.60;1.30;;;;;;;30.44;31.13;100053.47;5113273;28;20042;-62
2023/07/20 11:28:11;;;;;;;2.97;1.05;;;;;;;30.66;29.67;100042.53;5113219;28;20044;-62
2023/07/20 11:30:39;;;;;;;2.97;1.35;;;;;;;31.26;28.23;100047.66;5112295;28;20059;-62
2023/07/20 11:33:05;;;;;;;1.85;1.20;;;;;;;31.01;31.12;100051.84;5111860;28;20079;-63
2023/07/20 11:35:36;;;;;;;2.27;1.40;;;;;;;31.10;27.73;100049.13;5113196;28;20059;-62
2023/07/20 11:38:02;;;;;;;4.47;1.27;;;;;;;30.52;27.31;100048.09;5113058;28;20286;-62
2023/07/20 11:40:27;;;;;;;1.33;1.08;;;;;;;30.91;28.09;100049.38;5112771;28;20053;-62
2023/07/20 11:42:53;;;;;;;2.38;1.35;;;;;;;31.05;27.77;100039.09;5112974;28;20044;-62
2023/07/20 11:45:19;;;;;;;2.92;1.30;;;;;;;30.82;27.62;100036.69;5112910;28;20043;-62
2023/07/20 11:47:45;;;;;;;2.35;1.15;;;;;;;30.84;27.20;100029.72;5113004;28;20053;-62
2023/07/20 11:50:13;;;;;;;1.52;1.10;;;;;;;31.16;26.94;100030.56;5112588;28;20496;-62
2023/07/20 11:52:39;;;;;;;1.63;1.27;;;;;;;31.37;27.19;100025.38;5112885;28;20032;-63
2023/07/20 11:55:06;;;;;;;2.00;1.20;;;;;;;31.54;26.03;100026.25;5112861;28;20035;-63
2023/07/20 11:57:32;;;;;;;;;;;;;;;30.88;27.25;100025.25;5113173;28;20293;-63
2023/07/20 12:00:01;;;;;;;2.83;1.20;;;;;;;30.60;27.83;100027.28;5112405;28;19916;-63
2023/07/20 12:02:28;;;;;;;1.60;1.17;;;;;;;30.27;28.07;100023.94;5112688;28;20112;-62
2023/07/20 12:04:57;;;;;;;1.40;1.10;;;;;;;30.95;27.40;100017.34;5112733;28;20040;-62
2023/07/20 12:07:23;;;;;;;2.05;1.05;;;;;;;31.03;29.01;100016.59;5112585;28;20035;-63
2023/07/20 12:10:09;;;;;;;1.85;1.30;;;;;;;31.51;27.39;100017.81;5112429;28;20072;-62
2023/07/20 12:12:38;;;;;;;1.80;1.10;;;;;;;31.50;28.30;100013.47;5111216;28;20088;-62
2023/07/20 12:15:23;;;;;;;1.60;1.10;;;;;;;32.03;26.32;100009.72;5112554;28;20057;-62
2023/07/20 12:17:56;;;;;;;2.47;1.45;;;;;;;32.45;25.53;100001.81;5112580;28;20042;-63
2023/07/20 12:20:30;;;;;;;1.58;1.00;;;;;;;32.16;24.49;100002.44;5112176;28;20044;-62
2023/07/20 12:23:10;;;;;;;1.38;1.00;;;;;;;32.42;26.50;99995.03;5112521;28;20085;-62
2023/07/20 12:25:40;;;;;;;1.85;1.00;;;;;;;31.88;25.57;99997.22;5112512;28;20063;-63
2023/07/20 12:28:11;;;;;;;2.65;1.15;;;;;;;31.24;26.46;100003.16;5112424;28;20039;-63
2023/07/20 12:30:41;;;;;;;2.40;1.02;;;;;;;30.59;26.61;99998.19;5112052;28;20124;-63
2023/07/20 12:33:06;;;;;;;2.33;1.20;;;;;;;31.57;27.16;99991.78;5112408;28;20114;-62
2023/07/20 12:35:32;;;;;;;1.83;1.20;;;;;;;31.63;26.70;99989.69;5112347;28;20523;-63
2023/07/20 12:37:58;;;;;;;1.43;1.07;;;;;;;31.47;27.11;99975.56;5111120;28;20633;-63
2023/07/20 12:40:24;;;;;;;1.80;1.07;;;;;;;31.12;28.65;99991.09;5112159;28;20533;-63
2023/07/20 12:42:49;;;;;;;1.67;1.17;;;;;;;31.18;25.95;99984.31;5113669;28;20053;-62
2023/07/20 12:45:14;;;;;;;1.13;1.00;;;;;;;31.66;25.64;99973.34;5116298;28;20134;-62
2023/07/20 12:47:41;;;;;;;2.00;1.20;;;;;;;31.80;26.93;99973.22;5116438;28;20039;-62
2023/07/20 12:50:07;;;;;;;;;;;;;;;32.62;24.69;99974.25;5116387;28;20040;-62
2023/07/20 12:52:37;;;;;;;2.67;1.23;;;;;;;32.53;24.53;99974.25;5116187;28;19916;-63
2023/07/20 12:55:03;;;;;;;1.90;1.45;;;;;;;32.04;25.32;99959.81;5116242;28;20385;-63
2023/07/20 12:57:28;;;;;;;1.70;1.10;;;;;;;32.26;26.07;99969.88;5116111;28;20040;-63
2023/07/20 12:59:53;;;;;;;1.63;0.90;;;;;;;32.96;25.68;99964.31;5116067;28;20092;-63
2023/07/20 13:02:19;;;;;;;2.10;1.20;;;;;;;32.46;25.04;99959.34;5116013;28;20473;-62
2023/07/20 13:04:44;;;;;;;1.20;0.90;;;;;;;32.89;25.98;99960.09;5116380;28;20068;-62
2023/07/20 13:07:11;;;;;;;1.90;1.00;;;;;;;33.10;23.80;99953.88;5115944;28;20039;-62
2023/07/20 13:09:37;;;;;;;1.38;0.80;;;;;;;32.68;24.27;99961.91;5115656;28;20039;-62
2023/07/20 13:12:02;;;;;;;1.27;0.80;;;;;;;32.64;23.97;99947.97;5115870;28;20483;-62
2023/07/20 13:14:29;;;;;;;1.97;1.10;;;;;;;32.05;23.28;99958.69;5115853;28;20126;-62
2023/07/20 13:16:55;;;;;;;3.22;1.40;;;;;;;32.62;24.17;99961.28;5115664;28;20047;-63
2023/07/20 13:19:21;;;;;;;3.38;1.20;;;;;;;32.83;22.88;99957.81;5115677;28;20389;-62
2023/07/20 13:21:46;;;;;;;2.47;1.17;;;;;;;32.25;23.91;99956.41;5114536;28;20092;-63
2023/07/20 13:24:12;;;;;;;1.30;1.00;;;;;;;32.65;24.75;99943.25;5115608;28;20044;-63
2023/07/20 13:26:37;;;;;;;1.33;1.10;;;;;;;32.12;23.75;99944.44;5115581;28;20096;-63
2023/07/20 13:29:03;;;;;;;2.57;1.10;;;;;;;31.05;25.64;99945.59;5115405;28;20396;-61
2023/07/20 13:31:28;;;;;;;1.40;0.90;;;;;;;31.22;26.01;99946.78;5115470;28;20039;-62
2023/07/20 13:33:54;;;;;;;2.57;0.93;;;;;;;30.98;27.67;99944.44;5115470;28;20043;-61
2023/07/20 13:36:20;;;;;;;3.75;1.05;;;;;;;30.42;28.17;99941.16;5115305;28;20044;-62
2023/07/20 13:38:48;;;;;;;1.33;0.90;;;;;;;29.80;27.43;99938.19;5115064;28;20088;-61
2023/07/20 13:41:14;;;;;;;1.92;1.08;;;;;;;29.15;27.76;99939.25;5115236;28;20849;-64
2023/07/20 13:43:40;;;;;;;1.27;1.00;;;;;;;29.27;28.92;99937.91;5114572;28;20039;-62
2023/07/20 13:46:06;;;;;;;1.95;1.10;;;;;;;29.02;27.68;99936.50;5095546;28;20511;-63
2023/07/20 13:48:31;;;;;;;1.40;0.75;;;;;;;29.33;28.48;99922.97;5113668;28;20036;-62
2023/07/20 13:50:57;;;;;;;1.35;1.00;;;;;;;28.95;27.57;99925.09;5112695;28;20036;-63
2023/07/20 13:53:22;;;;;;;2.33;1.00;;;;;;;28.55;27.19;99924.69;5113375;28;20122;-62
2023/07/20 13:55:48;;;;;;;1.27;0.80;;;;;;;28.44;27.05;99925.97;5095339;28;20028;-62
2023/07/20 13:58:14;;;;;;;1.55;1.10;;;;;;;28.59;29.26;99928.47;5112496;28;20394;-62
2023/07/20 14:00:40;;;;;;;1.85;1.00;;;;;;;28.73;28.11;99912.84;5093671;28;20036;-63
2023/07/20 14:03:05;;;;;;;1.27;0.95;;;;;;;28.66;29.57;99915.97;5112501;28;20088;-60
2023/07/20 14:05:30;;;;;;;1.30;0.80;;;;;;;28.74;30.34;99919.16;5113823;28;20396;-61
2023/07/20 14:07:56;;;;;;;2.05;1.08;;;;;;;28.70;29.65;99912.66;5112439;28;20108;-62
2023/07/20 14:10:21;;;;;;;1.85;1.08;;;;;;;28.53;27.97;99916.78;5095360;28;20100;-62
2023/07/20 14:12:47;;;;;;;1.17;0.90;;;;;;;28.05;26.00;99907.94;5113458;28;20015;-59
2023/07/20 14:15:12;;;;;;;2.83;0.95;;;;;;;27.91;26.52;99899.69;5113555;28;20035;-60
2023/07/20 14:17:37;;;;;;;2.25;1.05;;;;;;;28.00;28.56;99899.81;5113406;28;20040;-61
2023/07/20 14:20:08;;;;;;;1.33;1.00;;;;;;;27.81;28.52;99894.34;5113248;28;20032;-60
2023/07/20 14:22:33;;;;;;;1.40;1.00;;;;;;;27.93;29.18;99893.91;5110769;28;20084;-61
2023/07/20 14:24:58;;;;;;;3.08;1.30;;;;;;;28.01;30.29;99899.50;5113280;28;20020;-60
2023/07/20 14:27:24;;;;;;;1.63;0.80;;;;;;;27.87;29.03;99900.56;5113243;28;20078;-61
2023/07/20 14:29:50;;;;;;;2.05;1.10;;;;;;;27.72;28.96;99898.84;5112991;28;20122;-61
2023/07/20 14:32:15;;;;;;;2.85;1.15;;;;;;;27.69;29.69;99897.50;5113133;28;20039;-61
2023/07/20 14:34:40;;;;;;;2.33;1.40;;;;;;;27.89;31.93;99892.84;5113236;28;20438;-60
2023/07/20 14:37:06;;;;;;;1.77;1.10;;;;;;;27.99;29.63;99892.72;5113082;28;20035;-59
2023/07/20 14:39:32;;;;;;;2.60;1.17;;;;;;;28.01;29.49;99896.75;5112964;28;20035;-62
2023/07/20 14:41:58;;;;;;;2.58;1.25;;;;;;;28.22;29.51;99891.78;5113246;28;20039;-61
2023/07/20 14:44:23;;;;;;;1.83;1.25;;;;;;;27.78;29.56;99890.28;5112988;28;20504;-60
2023/07/20 14:46:48;;;;;;;4.65;1.30;;;;;;;27.52;29.15;99887.06;5112906;28;20484;-61
2023/07/20 14:49:14;;;;;;;2.22;1.05;;;;;;;27.48;28.42;99883.28;5076561;28;20392;-61
2023/07/20 14:51:43;;;;;;;3.65;1.20;;;;;;;27.33;28.13;99888.94;5112552;28;20050;-60
2023/07/20 14:54:09;;;;;;;3.00;1.30;;;;;;;27.39;28.48;99884.22;5113079;28;20035;-61
2023/07/20 14:56:35;;;;;;;1.75;1.25;;;;;;;27.22;28.26;99868.31;5113777;28;20480;-61
2023/07/20 14:59:01;;;;;;;2.45;1.20;;;;;;;27.00;28.27;99877.84;5113482;28;20036;-62
2023/07/20 15:01:26;;;;;;;2.83;1.60;;;;;;;27.33;28.96;99880.75;5112669;28;20389;-61
2023/07/20 15:03:53;;;;;;;1.92;1.35;;;;;;;27.38;29.05;99863.44;5113914;28;20040;-62
2023/07/20 15:06:19;;;;;;;2.03;1.42;;;;;;;27.62;28.62;99877.88;5112676;28;20043;-62
2023/07/20 15:08:44;;;;;;;1.90;1.30;;;;;;;27.67;29.02;99869.63;5113272;28;20504;-62
2023/07/20 15:11:10;;;;;;;5.15;1.45;;;;;;;27.62;27.66;99869.69;5113251;28;20078;-62
2023/07/20 15:13:35;;;;;;;1.60;0.80;;;;;;;27.48;27.85;99864.13;5113472;28;20412;-62
2023/07/20 15:16:01;;;;;;;1.65;1.10;;;;;;;27.45;27.15;99864.72;5113594;28;20032;-62
2023/07/20 15:18:26;;;;;;;1.60;1.20;;;;;;;27.48;27.07;99853.19;5113080;28;20035;-62
2023/07/20 15:20:53;;;;;;;2.35;1.10;;;;;;;27.34;26.77;99856.94;5113256;28;20567;-62
2023/07/20 15:23:19;;;;;;;2.08;1.10;;;;;;;27.23;27.99;99853.53;5113336;27;20035;-62
2023/07/20 15:25:45;;;;;;;1.90;1.10;;;;;;;27.22;27.31;99852.72;5113300;27;20092;-61
2023/07/20 15:28:10;;;;;;;1.98;1.10;;;;;;;27.20;27.46;99856.84;5113137;28;20040;-60
2023/07/20 15:30:36;;;;;;;1.77;1.20;;;;;;;27.14;28.30;99847.91;5112964;28;20043;-62
2023/07/20 15:33:01;;;;;;;2.00;1.10;;;;;;;27.18;28.25;99851.66;5113145;28;20096;-62
2023/07/20 15:35:26;;;;;;;2.40;1.25;;;;;;;27.29;29.67;99835.94;5113020;28;20078;-62
2023/07/20 15:37:52;;;;;;;1.90;1.00;;;;;;;27.37;29.33;99838.03;5112975;28;20042;-62
2023/07/20 15:40:17;;;;;;;2.08;1.35;;;;;;;27.37;29.94;99831.75;5112775;28;20044;-62
2023/07/20 15:42:43;;;;;;;1.70;0.88;;;;;;;27.37;28.59;99831.75;5112813;28;20031;-62
2023/07/20 15:45:09;;;;;;;1.88;1.10;;;;;;;27.23;26.71;99821.53;5112816;28;20142;-63
2023/07/20 15:47:34;;;;;;;2.17;1.40;;;;;;;27.17;27.00;99830.91;5112822;28;20047;-62